createdAt,value
2023-05-17T00:01:45.389Z,6.83
2023-05-17T00:04:11.871Z,5.07
2023-05-17T00:06:38.411Z,4.70
2023-05-17T00:09:04.890Z,8.13
2023-05-17T00:11:31.684Z,4.53
2023-05-17T00:13:58.118Z,5.43
2023-05-17T00:16:24.574Z,4.83
2023-05-17T00:18:51.322Z,4.60
2023-05-17T00:21:17.936Z,4.20
2023-05-17T00:23:44.499Z,4.20
2023-05-17T00:26:11.001Z,2.83
2023-05-17T00:28:37.482Z,6.93
2023-05-17T00:31:03.926Z,4.63
2023-05-17T00:33:30.511Z,6.67
2023-05-17T00:35:57.114Z,6.87
2023-05-17T00:38:23.578Z,10.23
2023-05-17T00:40:50.701Z,5.30
2023-05-17T00:43:17.130Z,9.30
2023-05-17T00:45:43.601Z,6.63
2023-05-17T00:48:10.243Z,5.20
2023-05-17T00:50:36.781Z,10.97
2023-05-17T00:53:03.425Z,5.13
2023-05-17T00:55:30.695Z,13.67
2023-05-17T00:57:57.543Z,4.70
2023-05-17T01:00:24.339Z,4.07
2023-05-17T01:02:50.961Z,4.47
2023-05-17T01:05:17.766Z,4.20
2023-05-17T01:07:44.238Z,5.33
2023-05-17T01:10:11.306Z,4.90
2023-05-17T01:12:55.650Z,9.17
2023-05-17T01:15:32.927Z,5.67
2023-05-17T01:18:20.922Z,5.20
2023-05-17T01:20:49.004Z,3.87
2023-05-17T01:23:49.771Z,5.53
2023-05-17T01:26:19.480Z,6.10
2023-05-17T01:28:52.278Z,4.60
2023-05-17T01:31:18.723Z,3.70
2023-05-17T01:33:45.601Z,3.63
2023-05-17T01:36:12.139Z,4.90
2023-05-17T01:38:38.596Z,5.43
2023-05-17T01:41:16.550Z,3.27
2023-05-17T01:43:56.853Z,7.60
2023-05-17T01:46:33.871Z,4.07
2023-05-17T01:49:19.467Z,4.67
2023-05-17T01:51:50.801Z,4.63
2023-05-17T01:54:23.080Z,4.47
2023-05-17T01:57:01.516Z,6.27
2023-05-17T01:59:31.533Z,5.00
2023-05-17T02:02:07.258Z,4.40
2023-05-17T02:04:33.715Z,4.70
2023-05-17T02:07:00.200Z,5.40
2023-05-17T02:09:26.663Z,2.47
2023-05-17T02:11:53.179Z,3.37
2023-05-17T02:14:19.638Z,4.50
2023-05-17T02:16:46.116Z,6.47
2023-05-17T02:19:13.362Z,7.13
2023-05-17T02:21:39.979Z,5.30
2023-05-17T02:24:06.890Z,3.53
2023-05-17T02:26:33.377Z,2.97
2023-05-17T02:29:00.139Z,9.17
2023-05-17T02:31:26.762Z,6.03
2023-05-17T02:33:56.421Z,4.33
2023-05-17T02:36:22.992Z,4.60
2023-05-17T02:38:49.431Z,7.10
2023-05-17T02:41:15.952Z,4.03
2023-05-17T02:43:42.501Z,6.13
2023-05-17T02:46:08.976Z,5.00
2023-05-17T02:48:35.720Z,6.10
2023-05-17T02:51:02.166Z,5.00
2023-05-17T02:53:28.582Z,3.00
2023-05-17T02:55:58.013Z,6.70
2023-05-17T02:58:25.305Z,5.20
2023-05-17T03:00:52.088Z,4.30
2023-05-17T03:03:18.762Z,4.50
2023-05-17T03:05:45.385Z,10.40
2023-05-17T03:08:11.833Z,9.03
2023-05-17T03:10:38.356Z,6.90
2023-05-17T03:13:04.763Z,4.97
2023-05-17T03:15:31.673Z,8.17
2023-05-17T03:17:58.510Z,4.40
2023-05-17T03:20:25.090Z,5.10
2023-05-17T03:22:51.579Z,12.40
2023-05-17T03:25:18.130Z,4.57
2023-05-17T03:27:44.606Z,5.60
2023-05-17T03:30:11.391Z,10.33
2023-05-17T03:32:40.420Z,5.60
2023-05-17T03:35:08.274Z,5.27
2023-05-17T03:37:34.847Z,7.00
2023-05-17T03:40:01.306Z,3.97
2023-05-17T03:42:27.816Z,5.73
2023-05-17T03:44:54.337Z,7.50
2023-05-17T03:47:23.879Z,2.73
2023-05-17T03:49:50.585Z,6.17
2023-05-17T03:52:17.092Z,10.90
2023-05-17T03:54:43.525Z,4.30
2023-05-17T03:57:09.970Z,5.00
2023-05-17T03:59:36.395Z,4.90
2023-05-17T04:02:02.860Z,3.90
2023-05-17T04:04:29.417Z,4.03
2023-05-17T04:06:55.950Z,6.20
2023-05-17T04:09:22.375Z,7.60
2023-05-17T04:11:48.816Z,6.47
2023-05-17T04:14:15.316Z,4.80
2023-05-17T04:16:41.746Z,4.10
2023-05-17T04:19:08.447Z,6.70
2023-05-17T04:21:35.355Z,4.50
2023-05-17T04:24:02.221Z,7.47
2023-05-17T04:26:28.998Z,5.70
2023-05-17T04:28:55.532Z,5.83
2023-05-17T04:31:22.379Z,7.63
2023-05-17T04:33:48.826Z,6.27
2023-05-17T04:36:15.842Z,7.03
2023-05-17T04:38:42.557Z,4.30
2023-05-17T04:41:09.511Z,7.30
2023-05-17T04:43:36.377Z,5.60
2023-05-17T04:46:02.867Z,8.50
2023-05-17T04:48:32.066Z,5.10
2023-05-17T04:51:04.098Z,5.20
2023-05-17T04:53:31.303Z,9.77
2023-05-17T04:55:58.346Z,6.50
2023-05-17T04:58:24.888Z,8.20
2023-05-17T05:00:52.417Z,6.70
2023-05-17T05:03:19.011Z,9.90
2023-05-17T05:05:45.690Z,15.57
2023-05-17T05:08:12.247Z,6.50
2023-05-17T05:10:38.714Z,8.73
2023-05-17T05:13:05.193Z,11.80
2023-05-17T05:15:32.649Z,8.57
2023-05-17T05:17:59.213Z,13.10
2023-05-17T05:20:27.833Z,13.37
2023-05-17T05:22:54.734Z,9.67
2023-05-17T05:25:21.179Z,10.93
2023-05-17T05:27:47.709Z,12.87
2023-05-17T05:30:21.876Z,12.60
2023-05-17T05:32:50.058Z,14.00
2023-05-17T05:35:17.287Z,14.67
2023-05-17T05:37:44.364Z,19.50
2023-05-17T05:40:11.653Z,18.10
2023-05-17T05:42:38.092Z,19.40
2023-05-17T05:45:05.059Z,16.50
2023-05-17T05:47:31.599Z,22.13
2023-05-17T05:49:58.111Z,17.40
2023-05-17T05:52:24.598Z,18.70
2023-05-17T05:54:51.010Z,28.13
2023-05-17T05:57:17.451Z,20.47
2023-05-17T05:59:43.874Z,20.97
2023-05-17T06:02:10.402Z,24.70
2023-05-17T06:04:45.348Z,28.93
2023-05-17T06:07:13.293Z,28.03
2023-05-17T06:09:40.027Z,29.43
2023-05-17T06:12:06.650Z,23.37
2023-05-17T06:14:33.316Z,26.67
2023-05-17T06:16:59.808Z,30.33
2023-05-17T06:19:26.991Z,25.10
2023-05-17T06:21:53.596Z,27.03
2023-05-17T06:24:20.178Z,29.40
2023-05-17T06:26:47.263Z,24.87
2023-05-17T06:29:13.707Z,22.40
2023-05-17T06:31:41.330Z,23.67
2023-05-17T06:34:07.988Z,27.30
2023-05-17T06:36:35.935Z,25.37
2023-05-17T06:39:04.141Z,27.60
2023-05-17T06:41:30.762Z,33.10
2023-05-17T06:43:57.246Z,31.47
2023-05-17T06:46:23.858Z,29.83
2023-05-17T06:48:51.238Z,27.77
2023-05-17T06:51:18.114Z,32.43
2023-05-17T06:53:44.596Z,27.10
2023-05-17T06:56:11.192Z,36.63
2023-05-17T06:58:37.722Z,26.53
2023-05-17T07:01:04.374Z,30.20
2023-05-17T07:03:30.943Z,30.80
2023-05-17T07:05:57.460Z,28.20
2023-05-17T07:08:23.915Z,32.23
2023-05-17T07:10:53.792Z,30.93
2023-05-17T07:13:20.737Z,34.30
2023-05-17T07:15:47.275Z,35.80
2023-05-17T07:18:13.933Z,35.17
2023-05-17T07:20:40.505Z,34.80
2023-05-17T07:23:07.779Z,33.50
2023-05-17T07:25:34.401Z,40.93
2023-05-17T07:28:01.126Z,38.83
2023-05-17T07:30:27.581Z,35.07
2023-05-17T07:32:54.118Z,37.97
2023-05-17T07:35:21.861Z,46.83
2023-05-17T07:37:48.767Z,29.97
2023-05-17T07:40:15.513Z,34.50
2023-05-17T07:42:42.138Z,36.27
2023-05-17T07:45:09.337Z,39.77
2023-05-17T07:47:35.925Z,35.03
2023-05-17T07:50:04.114Z,30.03
2023-05-17T07:52:30.577Z,28.57
2023-05-17T07:54:57.086Z,37.23
2023-05-17T07:57:23.650Z,41.50
2023-05-17T07:59:50.093Z,30.57
2023-05-17T08:02:16.551Z,27.00
2023-05-17T08:04:43.076Z,33.00
2023-05-17T08:07:09.783Z,30.57
2023-05-17T08:09:36.237Z,33.53
2023-05-17T08:12:02.714Z,33.33
2023-05-17T08:14:29.284Z,30.53
2023-05-17T08:16:55.725Z,25.70
2023-05-17T08:19:22.469Z,29.93
2023-05-17T08:21:49.408Z,26.97
2023-05-17T08:24:16.147Z,22.83
2023-05-17T08:26:42.629Z,26.37
2023-05-17T08:29:11.458Z,27.60
2023-05-17T08:31:37.968Z,27.00
2023-05-17T08:34:04.782Z,26.77
2023-05-17T08:36:31.279Z,20.10
2023-05-17T08:38:58.029Z,20.13
2023-05-17T08:41:24.576Z,21.90
2023-05-17T08:43:51.799Z,21.43
2023-05-17T08:46:21.745Z,21.87
2023-05-17T08:48:51.849Z,20.00
2023-05-17T08:51:20.627Z,16.50
2023-05-17T08:53:48.109Z,18.70
2023-05-17T08:56:17.497Z,15.83
2023-05-17T08:58:56.197Z,16.80
2023-05-17T09:01:25.873Z,18.53
2023-05-17T09:03:52.811Z,12.70
2023-05-17T09:06:23.673Z,15.00
2023-05-17T09:08:54.965Z,11.00
2023-05-17T09:11:35.000Z,12.23
2023-05-17T09:14:06.081Z,13.27
2023-05-17T09:16:35.299Z,13.40
2023-05-17T09:19:04.288Z,11.77
2023-05-17T09:21:31.786Z,16.00
2023-05-17T09:24:06.964Z,12.37
2023-05-17T09:26:43.366Z,10.27
2023-05-17T09:29:11.490Z,8.97
2023-05-17T09:31:38.487Z,11.40
2023-05-17T09:34:07.118Z,9.90
2023-05-17T09:36:36.172Z,8.50
2023-05-17T09:39:10.707Z,9.47
2023-05-17T09:41:48.301Z,12.23
2023-05-17T09:44:15.762Z,10.33
2023-05-17T09:46:47.865Z,7.57
2023-05-17T09:49:15.415Z,9.37
2023-05-17T09:51:47.466Z,11.67
2023-05-17T09:54:13.990Z,16.63
2023-05-17T09:56:41.116Z,10.77
2023-05-17T09:59:15.576Z,9.00
2023-05-17T10:01:45.139Z,8.60
2023-05-17T10:04:13.236Z,6.80
2023-05-17T10:09:14.234Z,10.20
2023-05-17T10:11:45.849Z,9.30
2023-05-17T10:14:31.926Z,10.47
2023-05-17T10:16:59.015Z,9.87
2023-05-17T10:19:26.525Z,8.13
2023-05-17T10:21:53.946Z,7.23
2023-05-17T10:24:24.032Z,6.00
2023-05-17T10:26:51.302Z,7.50
2023-05-17T10:29:20.870Z,6.47
2023-05-17T10:31:48.788Z,9.70
2023-05-17T10:34:16.815Z,9.17
2023-05-17T10:36:49.530Z,7.60
2023-05-17T10:39:16.750Z,6.40
2023-05-17T10:41:46.480Z,4.60
2023-05-17T10:44:16.072Z,7.33
2023-05-17T10:46:52.711Z,6.33
2023-05-17T10:49:24.148Z,6.23
2023-05-17T10:51:51.655Z,6.67
2023-05-17T10:54:18.796Z,8.47
2023-05-17T10:56:49.150Z,7.63
2023-05-17T10:59:24.368Z,5.20
2023-05-17T11:01:57.863Z,8.00
2023-05-17T11:04:38.926Z,7.80
2023-05-17T11:07:17.942Z,13.70
2023-05-17T11:09:46.238Z,12.17
2023-05-17T11:12:14.390Z,9.73
2023-05-17T11:14:54.389Z,8.10
2023-05-17T11:17:23.912Z,5.17
2023-05-17T11:20:25.842Z,5.80
2023-05-17T11:22:56.421Z,6.00
2023-05-17T11:25:23.066Z,5.27
2023-05-17T11:27:51.846Z,6.60
2023-05-17T11:30:23.221Z,6.43
2023-05-17T11:32:52.237Z,5.93
2023-05-17T11:35:19.875Z,11.90
2023-05-17T11:37:46.497Z,6.00
2023-05-17T11:40:14.823Z,4.67
2023-05-17T11:42:41.894Z,8.43
2023-05-17T11:45:08.845Z,4.77
2023-05-17T11:47:39.519Z,8.23
2023-05-17T11:50:07.353Z,5.93
2023-05-17T11:52:34.430Z,5.93
2023-05-17T11:55:01.492Z,6.07
2023-05-17T11:57:32.283Z,7.00
2023-05-17T12:00:00.420Z,6.47
2023-05-17T12:02:31.556Z,8.63
2023-05-17T12:04:58.396Z,8.03
2023-05-17T12:07:25.968Z,7.50
2023-05-17T12:09:53.023Z,9.10
2023-05-17T12:12:22.486Z,5.80
2023-05-17T12:14:50.502Z,9.87
2023-05-17T12:17:27.435Z,6.33
2023-05-17T12:19:54.569Z,9.07
2023-05-17T12:22:21.397Z,8.70
2023-05-17T12:24:47.897Z,4.93
2023-05-17T12:27:14.418Z,6.23
2023-05-17T12:29:41.092Z,7.03
2023-05-17T12:32:10.217Z,10.07
2023-05-17T12:34:36.982Z,4.60
2023-05-17T12:37:05.056Z,7.03
2023-05-17T12:39:31.757Z,16.17
2023-05-17T12:41:58.915Z,5.30
2023-05-17T12:44:25.489Z,6.90
2023-05-17T12:46:56.132Z,6.83
2023-05-17T12:49:23.064Z,9.80
2023-05-17T12:51:52.448Z,7.70
2023-05-17T12:54:29.475Z,7.13
2023-05-17T12:56:56.487Z,6.00
2023-05-17T12:59:25.647Z,8.30
2023-05-17T13:01:55.806Z,4.93
2023-05-17T13:04:33.796Z,6.37
2023-05-17T13:07:02.621Z,5.03
2023-05-17T13:09:33.218Z,6.43
2023-05-17T13:12:07.577Z,5.83
2023-05-17T13:14:46.113Z,6.70
2023-05-17T13:17:25.244Z,4.30
2023-05-17T13:19:52.552Z,6.80
2023-05-17T13:22:19.491Z,5.37
2023-05-17T13:24:46.062Z,5.87
2023-05-17T13:27:13.054Z,9.77
2023-05-17T13:29:42.121Z,5.77
2023-05-17T13:32:13.666Z,6.30
2023-05-17T13:34:41.372Z,6.70
2023-05-17T13:37:11.588Z,6.80
2023-05-17T13:39:39.121Z,5.30
2023-05-17T13:42:05.942Z,6.53
2023-05-17T13:44:32.582Z,6.27
2023-05-17T13:46:59.086Z,6.07
2023-05-17T13:49:26.086Z,6.17
2023-05-17T13:51:52.513Z,5.50
2023-05-17T13:54:20.735Z,9.70
2023-05-17T13:56:48.529Z,9.60
2023-05-17T13:59:14.984Z,9.50
2023-05-17T14:01:41.918Z,7.73
2023-05-17T14:04:08.591Z,8.30
2023-05-17T14:06:35.148Z,7.63
2023-05-17T14:09:01.663Z,8.67
2023-05-17T14:11:28.216Z,6.80
2023-05-17T14:13:54.789Z,7.20
2023-05-17T14:16:22.874Z,5.73
2023-05-17T14:18:49.829Z,9.67
2023-05-17T14:21:16.571Z,7.27
2023-05-17T14:23:43.027Z,5.30
2023-05-17T14:26:09.663Z,5.03
2023-05-17T14:28:38.268Z,7.20
2023-05-17T14:31:09.372Z,5.83
2023-05-17T14:33:36.154Z,7.63
2023-05-17T14:36:04.020Z,9.23
2023-05-17T14:38:31.056Z,7.00
2023-05-17T14:40:58.980Z,7.90
2023-05-17T14:43:25.626Z,6.00
2023-05-17T14:45:52.075Z,6.50
2023-05-17T14:48:18.665Z,11.63
2023-05-17T14:50:45.240Z,9.10
2023-05-17T14:53:11.914Z,6.10
2023-05-17T14:55:38.447Z,8.13
2023-05-17T14:58:04.974Z,5.13
2023-05-17T15:00:31.483Z,4.90
2023-05-17T15:02:58.181Z,7.27
2023-05-17T15:05:25.057Z,8.73
2023-05-17T15:07:52.791Z,7.00
2023-05-17T15:10:19.548Z,6.20
2023-05-17T15:12:46.029Z,9.80
2023-05-17T15:15:12.955Z,5.30
2023-05-17T15:17:39.462Z,8.77
2023-05-17T15:20:07.472Z,6.63
2023-05-17T15:22:34.109Z,6.67
2023-05-17T15:25:00.571Z,7.70
2023-05-17T15:27:27.076Z,8.37
2023-05-17T15:29:53.533Z,10.77
2023-05-17T15:32:20.029Z,6.43
2023-05-17T15:34:46.740Z,10.33
2023-05-17T15:37:13.272Z,6.60
2023-05-17T15:39:39.694Z,6.77
2023-05-17T15:42:06.182Z,6.83
2023-05-17T15:44:32.658Z,6.33
2023-05-17T15:47:01.462Z,5.00
2023-05-17T15:49:29.628Z,9.87
2023-05-17T15:51:56.355Z,8.57
2023-05-17T15:54:22.831Z,5.70
2023-05-17T15:56:49.324Z,5.13
2023-05-17T15:59:16.107Z,5.67
2023-05-17T16:01:45.986Z,4.67
2023-05-17T16:04:13.509Z,5.40
2023-05-17T16:06:40.205Z,7.63
2023-05-17T16:09:06.845Z,7.50
2023-05-17T16:11:33.365Z,3.93
2023-05-17T16:13:59.907Z,9.17
2023-05-17T16:16:26.414Z,4.60
2023-05-17T16:18:53.314Z,5.23
2023-05-17T16:21:20.020Z,6.43
2023-05-17T16:23:46.584Z,3.40
2023-05-17T16:26:13.249Z,4.23
2023-05-17T16:28:40.120Z,7.90
2023-05-17T16:31:06.704Z,4.43
2023-05-17T16:33:34.736Z,5.03
2023-05-17T16:36:02.194Z,8.20
2023-05-17T16:38:28.661Z,6.53
2023-05-17T16:40:55.286Z,4.53
2023-05-17T16:43:22.050Z,5.63
2023-05-17T16:45:49.926Z,5.40
2023-05-17T16:48:17.526Z,6.33
2023-05-17T16:50:44.217Z,11.03
2023-05-17T16:53:10.844Z,5.43
2023-05-17T16:55:38.117Z,5.33
2023-05-17T16:58:05.039Z,10.13
2023-05-17T17:00:32.094Z,6.97
2023-05-17T17:02:59.442Z,8.47
2023-05-17T17:05:29.172Z,8.30
2023-05-17T17:07:55.775Z,5.07
2023-05-17T17:10:22.318Z,6.27
2023-05-17T17:12:49.358Z,14.10
2023-05-17T17:15:16.000Z,6.20
2023-05-17T17:17:42.726Z,6.90
2023-05-17T17:20:09.910Z,7.40
2023-05-17T17:22:36.384Z,6.57
2023-05-17T17:25:03.301Z,9.07
2023-05-17T17:27:29.745Z,6.20
2023-05-17T17:29:56.236Z,4.50
2023-05-17T17:32:22.720Z,6.63
2023-05-17T17:34:49.246Z,10.50
2023-05-17T17:37:15.963Z,9.50
2023-05-17T17:39:42.528Z,5.60
2023-05-17T17:42:10.089Z,5.23
2023-05-17T17:44:36.780Z,6.40
2023-05-17T17:47:03.479Z,5.93
2023-05-17T17:49:30.193Z,3.93
2023-05-17T17:51:58.085Z,6.90
2023-05-17T17:54:24.707Z,6.10
2023-05-17T17:56:51.143Z,8.07
2023-05-17T17:59:17.630Z,5.63
2023-05-17T18:01:44.292Z,6.20
2023-05-17T18:04:13.379Z,5.03
2023-05-17T18:06:41.790Z,2.83
2023-05-17T18:09:08.308Z,6.93
2023-05-17T18:11:34.881Z,4.77
2023-05-17T18:14:02.499Z,4.57
2023-05-17T18:16:29.153Z,5.33
2023-05-17T18:18:55.993Z,6.23
2023-05-17T18:21:22.565Z,7.37
2023-05-17T18:23:49.001Z,6.40
2023-05-17T18:26:15.500Z,7.00
2023-05-17T18:28:43.082Z,3.53
2023-05-17T18:31:10.118Z,3.70
2023-05-17T18:33:36.609Z,5.23
2023-05-17T18:36:03.359Z,4.20
2023-05-17T18:38:29.903Z,6.60
2023-05-17T18:40:56.496Z,4.27
2023-05-17T18:43:23.102Z,7.60
2023-05-17T18:45:51.349Z,7.80
2023-05-17T18:48:18.074Z,5.13
2023-05-17T18:50:44.559Z,6.30
2023-05-17T18:53:12.827Z,6.27
2023-05-17T18:55:39.412Z,8.40
2023-05-17T18:58:05.924Z,5.93
2023-05-17T19:00:32.971Z,5.10
2023-05-17T19:02:59.584Z,4.83
2023-05-17T19:05:26.043Z,6.23
2023-05-17T19:07:52.532Z,8.73
2023-05-17T19:10:20.609Z,9.23
2023-05-17T19:12:47.313Z,4.83
2023-05-17T19:15:13.846Z,8.40
2023-05-17T19:17:40.603Z,8.00
2023-05-17T19:20:07.913Z,9.87
2023-05-17T19:22:35.790Z,5.50
2023-05-17T19:25:02.527Z,6.07
2023-05-17T19:27:29.378Z,4.67
2023-05-17T19:29:56.044Z,5.90
2023-05-17T19:32:22.890Z,11.00
2023-05-17T19:34:49.944Z,4.70
2023-05-17T19:37:16.659Z,10.10
2023-05-17T19:39:43.133Z,5.33
2023-05-17T19:42:09.567Z,7.57
2023-05-17T19:44:36.273Z,15.63
2023-05-17T19:47:02.718Z,17.67
2023-05-17T19:49:29.158Z,23.37
2023-05-17T19:52:00.523Z,23.97
2023-05-17T19:54:30.202Z,13.30
2023-05-17T19:56:57.203Z,7.80
2023-05-17T19:59:23.778Z,10.80
2023-05-17T20:01:51.221Z,8.87
2023-05-17T20:04:17.856Z,7.77
2023-05-17T20:06:44.746Z,7.77
2023-05-17T20:09:11.469Z,10.83
2023-05-17T20:11:38.080Z,6.13
2023-05-17T20:14:04.632Z,8.90
2023-05-17T20:16:31.238Z,8.53
2023-05-17T20:18:58.536Z,14.13
2023-05-17T20:21:26.355Z,8.43
2023-05-17T20:23:56.850Z,8.53
2023-05-17T20:26:26.975Z,9.03
2023-05-17T20:28:53.690Z,8.47
2023-05-17T20:31:20.516Z,13.37
2023-05-17T20:33:47.045Z,13.10
2023-05-17T20:36:14.586Z,10.93
2023-05-17T20:38:42.651Z,7.80
2023-05-17T20:41:11.115Z,7.03
2023-05-17T20:43:37.727Z,5.80
2023-05-17T20:46:07.601Z,4.63
2023-05-17T20:48:34.395Z,8.90
2023-05-17T20:51:01.198Z,4.40
2023-05-17T20:53:30.922Z,4.40
2023-05-17T20:55:58.389Z,9.10
2023-05-17T20:58:24.924Z,9.03
2023-05-17T21:00:52.875Z,6.23
2023-05-17T21:03:19.562Z,5.80
2023-05-17T21:05:46.524Z,12.73
2023-05-17T21:08:14.000Z,10.03
2023-05-17T21:10:42.760Z,5.87
2023-05-17T21:13:09.635Z,5.50
2023-05-17T21:15:36.638Z,5.40
2023-05-17T21:18:03.727Z,3.33
2023-05-17T21:20:30.822Z,7.40
2023-05-17T21:22:57.325Z,8.43
2023-05-17T21:25:23.942Z,8.03
2023-05-17T21:27:51.173Z,7.30
2023-05-17T21:30:17.687Z,8.40
2023-05-17T21:32:44.278Z,8.47
2023-05-17T21:35:10.865Z,4.57
2023-05-17T21:37:39.937Z,13.70
2023-05-17T21:40:08.024Z,5.20
2023-05-17T21:42:34.665Z,8.10
2023-05-17T21:45:01.263Z,9.07
2023-05-17T21:47:27.877Z,8.73
2023-05-17T21:49:54.807Z,5.70
2023-05-17T21:52:21.286Z,7.33
2023-05-17T21:54:47.896Z,9.30
2023-05-17T21:57:14.357Z,11.10
2023-05-17T21:59:40.909Z,9.57
2023-05-17T22:02:08.641Z,7.73
2023-05-17T22:04:35.327Z,7.53
2023-05-17T22:07:01.996Z,6.50
2023-05-17T22:09:28.442Z,7.80
2023-05-17T22:11:58.680Z,8.13
2023-05-17T22:14:25.896Z,7.90
2023-05-17T22:16:56.023Z,3.50
2023-05-17T22:19:23.477Z,7.17
2023-05-17T22:21:50.363Z,8.13
2023-05-17T22:24:16.901Z,7.33
2023-05-17T22:26:43.498Z,6.60
2023-05-17T22:29:10.070Z,3.80
2023-05-17T22:31:37.815Z,7.60
2023-05-17T22:34:04.879Z,6.43
2023-05-17T22:36:32.224Z,7.40
2023-05-17T22:38:59.119Z,7.03
2023-05-17T22:41:26.500Z,7.03
2023-05-17T22:43:53.413Z,9.80
2023-05-17T22:46:20.159Z,7.47
2023-05-17T22:48:46.632Z,6.20
2023-05-17T22:51:13.088Z,9.60
2023-05-17T22:53:39.569Z,5.57
2023-05-17T22:56:06.546Z,4.43
2023-05-17T22:58:33.000Z,6.73
2023-05-17T23:00:59.567Z,7.10
2023-05-17T23:03:26.370Z,6.30
2023-05-17T23:06:02.099Z,7.50
2023-05-17T23:08:30.067Z,6.83
2023-05-17T23:10:58.233Z,5.13
2023-05-17T23:13:25.935Z,7.03
2023-05-17T23:15:52.507Z,6.43
2023-05-17T23:18:19.185Z,4.83
2023-05-17T23:20:46.342Z,6.60
2023-05-17T23:23:16.127Z,5.43
2023-05-17T23:25:44.741Z,5.50
2023-05-17T23:28:11.531Z,5.73
2023-05-17T23:30:39.834Z,7.80
2023-05-17T23:33:06.499Z,4.83
2023-05-17T23:35:33.016Z,6.07
2023-05-17T23:37:59.824Z,4.47
2023-05-17T23:40:26.443Z,5.30
2023-05-17T23:42:52.947Z,4.77
2023-05-17T23:45:19.493Z,5.97
2023-05-17T23:47:47.614Z,11.60
2023-05-17T23:50:14.546Z,4.93
2023-05-17T23:52:41.008Z,6.97
2023-05-17T23:55:07.931Z,8.27
2023-05-17T23:57:35.333Z,5.43
